Observation data for Floydada on 06/21/2019      Previous  Date       Current Mesonet Observations  Soil Data  Daily Summary Page  Observations in Plain Language
KFLS 210500Z 20011KT 27/03 A2976 RMK A01 T02710032  RH  022%=      5-min Rain = 0
KFLS 210505Z 19010KT 27/03 A2977 RMK A01 T02680031  RH  022%=      5-min Rain = 0
KFLS 210510Z 19009KT 26/04 A2977 RMK A01 T02610035  RH  024%=      5-min Rain = 0
KFLS 210515Z 19009KT 26/04 A2976 RMK A01 T02560038  RH  025%=      5-min Rain = 0
KFLS 210520Z 19009KT 25/04 A2976 RMK A01 T02500040  RH  026%=      5-min Rain = 0
KFLS 210525Z 17008KT 24/04 A2976 RMK A01 T02430044  RH  028%=      5-min Rain = 0
KFLS 210530Z 19009G16KT 24/05 A2976 RMK A01 T02390049  RH  030%=      5-min Rain = 0
KFLS 210535Z 21013G21KT 27/02 A2976 RMK A01 T02680023  RH  021%=      5-min Rain = 0
KFLS 210540Z 21013G20KT 27/02 A2976 RMK A01 T02680024  RH  021%=      5-min Rain = 0
KFLS 210545Z 20011KT 26/03 A2976 RMK A01 T02610030  RH  023%=      5-min Rain = 0
KFLS 210550Z 20010KT 25/04 A2976 RMK A01 T02480037  RH  026%=      5-min Rain = 0
KFLS 210555Z 20010KT 24/04 A2976 RMK A01 T02390038  RH  027%=      5-min Rain = 0
KFLS 210600Z 20010KT 24/04 A2976 RMK A01 T02360037  RH  028%=      5-min Rain = 0
KFLS 210605Z 20010KT 24/03 A2976 RMK A01 T02350034  RH  027%=      5-min Rain = 0
KFLS 210610Z 20010KT 24/03 A2976 RMK A01 T02350033  RH  027%=      5-min Rain = 0
KFLS 210615Z 17010KT 23/03 A2976 RMK A01 T02330032  RH  027%=      5-min Rain = 0
KFLS 210620Z 16012KT 23/04 A2977 RMK A01 T02310040  RH  029%=      5-min Rain = 0
KFLS 210625Z 17014G21KT 25/01 A2976 RMK A01 T02510010  RH  021%=      5-min Rain = 0
KFLS 210630Z 16013G18KT 26/02 A2977 RMK A01 T02550024  RH  023%=      5-min Rain = 0
KFLS 210635Z 16013KT 24/04 A2977 RMK A01 T02410038  RH  027%=      5-min Rain = 0
KFLS 210640Z 17015KT 25/03 A2977 RMK A01 T02480026  RH  024%=      5-min Rain = 0
KFLS 210645Z 18014G19KT 26/01 A2977 RMK A01 T02550012  RH  021%=      5-min Rain = 0
KFLS 210650Z 18016G21KT 26/01 A2977 RMK A01 T02580005  RH  019%=      5-min Rain = 0
KFLS 210655Z 18015G22KT 26/01 A2977 RMK A01 T02610006  RH  019%=      5-min Rain = 0
KFLS 210700Z 18013G18KT 26/02 A2977 RMK A01 T02550015  RH  021%=      5-min Rain = 0
KFLS 210705Z 18015G20KT 25/03 A2977 RMK A01 T02510028  RH  024%=      5-min Rain = 0
KFLS 210710Z 18016KT 25/05 A2977 RMK A01 T02520054  RH  028%=      5-min Rain = 0
KFLS 210715Z 19016G21KT 25/08 A2977 RMK A01 T02530079  RH  034%=      5-min Rain = 0
KFLS 210720Z 19016G22KT 25/09 A2977 RMK A01 T02530094  RH  037%=      5-min Rain = 0
KFLS 210725Z 19015G20KT 25/10 A2977 RMK A01 T02520100  RH  039%=      5-min Rain = 0
KFLS 210730Z 19016KT 25/10 A2977 RMK A01 T02500104  RH  040%=      5-min Rain = 0
KFLS 210735Z 19016G21KT 25/11 A2976 RMK A01 T02500108  RH  042%=      5-min Rain = 0
KFLS 210740Z 19015G20KT 25/11 A2977 RMK A01 T02480114  RH  044%=      5-min Rain = 0
KFLS 210745Z 19017KT 25/12 A2977 RMK A01 T02490119  RH  045%=      5-min Rain = 0
KFLS 210750Z 19016G25KT 25/12 A2977 RMK A01 T02490123  RH  046%=      5-min Rain = 0
KFLS 210755Z 19014KT 25/13 A2977 RMK A01 T02460127  RH  048%=      5-min Rain = 0
KFLS 210800Z 19014G19KT 24/13 A2977 RMK A01 T02440130  RH  050%=      5-min Rain = 0
KFLS 210805Z 19015KT 25/13 A2977 RMK A01 T02450133  RH  051%=      5-min Rain = 0
KFLS 210810Z 19015G20KT 24/14 A2976 RMK A01 T02440136  RH  052%=      5-min Rain = 0
KFLS 210815Z 19014KT 24/14 A2976 RMK A01 T02420138  RH  053%=      5-min Rain = 0
KFLS 210820Z 19013G18KT 24/14 A2976 RMK A01 T02420140  RH  054%=      5-min Rain = 0
KFLS 210825Z 19014G20KT 24/14 A2976 RMK A01 T02410141  RH  055%=      5-min Rain = 0
KFLS 210830Z 19014G19KT 24/14 A2976 RMK A01 T02420142  RH  055%=      5-min Rain = 0
KFLS 210835Z 19015G20KT 24/14 A2976 RMK A01 T02430144  RH  055%=      5-min Rain = 0
KFLS 210840Z 20014G20KT 24/15 A2976 RMK A01 T02400145  RH  056%=      5-min Rain = 0
KFLS 210845Z 20014KT 24/15 A2976 RMK A01 T02410145  RH  056%=      5-min Rain = 0
KFLS 210850Z 20013G18KT 24/15 A2976 RMK A01 T02390145  RH  057%=      5-min Rain = 0
KFLS 210855Z 20014KT 24/15 A2976 RMK A01 T02400145  RH  057%=      5-min Rain = 0
KFLS 210900Z 19014KT 24/15 A2976 RMK A01 T02400145  RH  057%=      5-min Rain = 0
KFLS 210905Z 20015G20KT 24/15 A2976 RMK A01 T02410145  RH  056%=      5-min Rain = 0
KFLS 210910Z 20015G21KT 24/15 A2976 RMK A01 T02420145  RH  056%=      5-min Rain = 0
KFLS 210915Z 20014G19KT 24/15 A2976 RMK A01 T02400145  RH  056%=      5-min Rain = 0
KFLS 210920Z 20014G20KT 24/15 A2976 RMK A01 T02410145  RH  056%=      5-min Rain = 0
KFLS 210925Z 20016KT 24/15 A2976 RMK A01 T02400145  RH  056%=      5-min Rain = 0
KFLS 210930Z 20015G20KT 24/15 A2977 RMK A01 T02400145  RH  056%=      5-min Rain = 0
KFLS 210935Z 20016KT 24/15 A2977 RMK A01 T02400145  RH  056%=      5-min Rain = 0
KFLS 210940Z 20015G20KT 24/15 A2977 RMK A01 T02390145  RH  057%=      5-min Rain = 0
KFLS 210945Z 20015G21KT 24/15 A2977 RMK A01 T02390146  RH  057%=      5-min Rain = 0
KFLS 210950Z 20015G21KT 24/15 A2977 RMK A01 T02380146  RH  058%=      5-min Rain = 0
KFLS 210955Z 20017G23KT 24/15 A2977 RMK A01 T02410147  RH  057%=      5-min Rain = 0
KFLS 211000Z 20016G21KT 24/15 A2977 RMK A01 T02400148  RH  058%=      5-min Rain = 0
KFLS 211005Z 20014G19KT 24/15 A2977 RMK A01 T02370150  RH  059%=      5-min Rain = 0
KFLS 211010Z 20014KT 23/15 A2977 RMK A01 T02340150  RH  060%=      5-min Rain = 0
KFLS 211015Z 20015G22KT 24/15 A2978 RMK A01 T02360151  RH  060%=      5-min Rain = 0
KFLS 211020Z 20015KT 24/15 A2978 RMK A01 T02380151  RH  060%=      5-min Rain = 0
KFLS 211025Z 20015KT 24/15 A2978 RMK A01 T02360152  RH  061%=      5-min Rain = 0
KFLS 211030Z 20015G20KT 24/15 A2978 RMK A01 T02360154  RH  061%=      5-min Rain = 0
KFLS 211035Z 20016KT 24/16 A2978 RMK A01 T02370155  RH  061%=      5-min Rain = 0
KFLS 211040Z 20014G20KT 24/16 A2979 RMK A01 T02360156  RH  062%=      5-min Rain = 0
KFLS 211045Z 20015KT 24/16 A2979 RMK A01 T02350156  RH  063%=      5-min Rain = 0
KFLS 211050Z 21014G19KT 23/16 A2979 RMK A01 T02340156  RH  063%=      5-min Rain = 0
KFLS 211055Z 20015KT 24/16 A2979 RMK A01 T02350157  RH  063%=      5-min Rain = 0
KFLS 211100Z 20015G20KT 23/16 A298 RMK A01 T02330158  RH  064%=      5-min Rain = 0
KFLS 211105Z 20014G20KT 23/16 A298 RMK A01 T02330159  RH  065%=      5-min Rain = 0
KFLS 211110Z 20015KT 23/16 A298 RMK A01 T02330160  RH  065%=      5-min Rain = 0
KFLS 211115Z 20015G23KT 23/16 A298 RMK A01 T02330161  RH  066%=      5-min Rain = 0
KFLS 211120Z 21014KT 23/16 A2981 RMK A01 T02320162  RH  066%=      5-min Rain = 0
KFLS 211125Z 21015G21KT 23/16 A2981 RMK A01 T02330163  RH  066%=      5-min Rain = 0
KFLS 211130Z 21014G20KT 23/16 A2981 RMK A01 T02320164  RH  067%=      5-min Rain = 0
KFLS 211135Z 21014G20KT 23/17 A2981 RMK A01 T02320165  RH  068%=      5-min Rain = 0
KFLS 211140Z 21015G21KT 23/17 A2981 RMK A01 T02320165  RH  068%=      5-min Rain = 0
KFLS 211145Z 21014KT 23/17 A2982 RMK A01 T02320166  RH  068%=      5-min Rain = 0
KFLS 211150Z 22011G16KT 23/17 A2982 RMK A01 T02310167  RH  069%=      5-min Rain = 0
KFLS 211155Z 21014G20KT 23/17 A2982 RMK A01 T02320167  RH  069%=      5-min Rain = 0
KFLS 211200Z 21014G19KT 23/17 A2982 RMK A01 T02330168  RH  069%=      5-min Rain = 0
KFLS 211205Z 21013G18KT 23/17 A2982 RMK A01 T02340169  RH  068%=      5-min Rain = 0
KFLS 211210Z 22010G15KT 23/17 A2983 RMK A01 T02320169  RH  069%=      5-min Rain = 0
KFLS 211215Z 21012KT 23/17 A2983 RMK A01 T02310169  RH  070%=      5-min Rain = 0
KFLS 211220Z 21014KT 23/17 A2983 RMK A01 T02320170  RH  070%=      5-min Rain = 0
KFLS 211225Z 21015KT 23/17 A2983 RMK A01 T02340171  RH  069%=      5-min Rain = 0
KFLS 211230Z 21016KT 24/17 A2983 RMK A01 T02370172  RH  069%=      5-min Rain = 0
KFLS 211235Z 21016KT 24/17 A2983 RMK A01 T02380173  RH  069%=      5-min Rain = 0
KFLS 211240Z 21014G20KT 24/17 A2983 RMK A01 T02390174  RH  069%=      5-min Rain = 0
KFLS 211245Z 20016G21KT 24/17 A2983 RMK A01 T02410174  RH  068%=      5-min Rain = 0
KFLS 211250Z 21015G22KT 24/18 A2983 RMK A01 T02440175  RH  067%=      5-min Rain = 0
KFLS 211255Z 21014G21KT 25/18 A2983 RMK A01 T02460175  RH  066%=      5-min Rain = 0
KFLS 211300Z 22013G18KT 25/18 A2984 RMK A01 T02480176  RH  066%=      5-min Rain = 0
KFLS 211305Z 21013G20KT 25/18 A2984 RMK A01 T02490177  RH  066%=      5-min Rain = 0
KFLS 211310Z 21014G21KT 25/18 A2984 RMK A01 T02510177  RH  065%=      5-min Rain = 0
KFLS 211315Z 22013KT 25/18 A2985 RMK A01 T02530177  RH  064%=      5-min Rain = 0
KFLS 211320Z 22014G19KT 26/18 A2985 RMK A01 T02550177  RH  063%=      5-min Rain = 0
KFLS 211325Z 21017KT 26/18 A2985 RMK A01 T02560176  RH  063%=      5-min Rain = 0
KFLS 211330Z 21015G21KT 26/18 A2985 RMK A01 T02580176  RH  062%=      5-min Rain = 0
KFLS 211335Z 22013KT 26/18 A2985 RMK A01 T02610177  RH  061%=      5-min Rain = 0
KFLS 211340Z 22011KT 26/18 A2985 RMK A01 T02630177  RH  060%=      5-min Rain = 0
KFLS 211345Z 22012G17KT 27/18 A2985 RMK A01 T02650176  RH  059%=      5-min Rain = 0
KFLS 211350Z 22013G19KT 27/17 A2985 RMK A01 T02680174  RH  058%=      5-min Rain = 0
KFLS 211355Z 22012G19KT 27/17 A2986 RMK A01 T02700173  RH  057%=      5-min Rain = 0
KFLS 211400Z 23013G19KT 27/17 A2986 RMK A01 T02710171  RH  056%=      5-min Rain = 0
KFLS 211405Z 23015G20KT 27/17 A2986 RMK A01 T02720169  RH  055%=      5-min Rain = 0
KFLS 211410Z 22013KT 27/17 A2986 RMK A01 T02740170  RH  055%=      5-min Rain = 0
KFLS 211415Z 22011G16KT 28/17 A2986 RMK A01 T02760171  RH  054%=      5-min Rain = 0
KFLS 211420Z 23013KT 28/17 A2986 RMK A01 T02770168  RH  053%=      5-min Rain = 0
KFLS 211425Z 23013G18KT 28/17 A2986 RMK A01 T02780166  RH  052%=      5-min Rain = 0
KFLS 211430Z 24013KT 28/17 A2986 RMK A01 T02790168  RH  052%=      5-min Rain = 0
KFLS 211435Z 23012KT 28/17 A2987 RMK A01 T02790165  RH  051%=      5-min Rain = 0
KFLS 211440Z 22013G19KT 28/16 A2986 RMK A01 T02810158  RH  048%=      5-min Rain = 0
KFLS 211445Z 22014G19KT 28/16 A2986 RMK A01 T02830156  RH  047%=      5-min Rain = 0
KFLS 211450Z 22014KT 28/15 A2986 RMK A01 T02840152  RH  046%=      5-min Rain = 0
KFLS 211455Z 23013G18KT 29/15 A2986 RMK A01 T02860153  RH  045%=      5-min Rain = 0
KFLS 211500Z 24015KT 29/15 A2986 RMK A01 T02870147  RH  043%=      5-min Rain = 0
KFLS 211505Z 23013KT 29/15 A2986 RMK A01 T02890146  RH  043%=      5-min Rain = 0
KFLS 211510Z 23014KT 29/14 A2986 RMK A01 T02910142  RH  041%=      5-min Rain = 0
KFLS 211515Z 23013KT 29/14 A2986 RMK A01 T02920139  RH  040%=      5-min Rain = 0
KFLS 211520Z 24012KT 30/14 A2986 RMK A01 T02960141  RH  040%=      5-min Rain = 0
KFLS 211525Z 23012KT 30/14 A2986 RMK A01 T02980138  RH  038%=      5-min Rain = 0
KFLS 211530Z 23012KT 30/13 A2986 RMK A01 T03010127  RH  035%=      5-min Rain = 0
KFLS 211535Z 23012KT 30/12 A2986 RMK A01 T03030121  RH  033%=      5-min Rain = 0
KFLS 211540Z 23010KT 31/13 A2986 RMK A01 T03060129  RH  035%=      5-min Rain = 0
KFLS 211545Z 24012KT 31/12 A2986 RMK A01 T03070117  RH  032%=      5-min Rain = 0
KFLS 211550Z 24011KT 31/11 A2987 RMK A01 T03100108  RH  029%=      5-min Rain = 0
KFLS 211555Z 24011KT 31/12 A2987 RMK A01 T03100116  RH  031%=      5-min Rain = 0
KFLS 211600Z 24010KT 31/12 A2987 RMK A01 T03130118  RH  031%=      5-min Rain = 0
KFLS 211605Z 24011KT 32/11 A2987 RMK A01 T03150108  RH  029%=      5-min Rain = 0
KFLS 211610Z 24011KT 32/09 A2987 RMK A01 T03170093  RH  025%=      5-min Rain = 0
KFLS 211615Z 26011KT 32/07 A2986 RMK A01 T03220073  RH  022%=      5-min Rain = 0
KFLS 211620Z 26011KT 33/04 A2986 RMK A01 T03280036  RH  016%=      5-min Rain = 0
KFLS 211625Z 25010KT 33/03 A2986 RMK A01 T03270033  RH  016%=      5-min Rain = 0
KFLS 211630Z 26011KT 33/03 A2986 RMK A01 T03290025  RH  015%=      5-min Rain = 0
KFLS 211635Z 26011KT 33/04 A2986 RMK A01 T03320038  RH  016%=      5-min Rain = 0
KFLS 211640Z 26012KT 33/03 A2986 RMK A01 T03310032  RH  015%=      5-min Rain = 0
KFLS 211645Z 26011KT 33/04 A2986 RMK A01 T03330036  RH  016%=      5-min Rain = 0
KFLS 211650Z 27010KT 33/04 A2986 RMK A01 T03330035  RH  016%=      5-min Rain = 0
KFLS 211655Z 26010KT 33/03 A2986 RMK A01 T03320031  RH  015%=      5-min Rain = 0
KFLS 211700Z 26010KT 33/03 A2986 RMK A01 T03330027  RH  015%=      5-min Rain = 0
KFLS 211705Z 25010KT 33/03 A2986 RMK A01 T03340028  RH  015%=      5-min Rain = 0
KFLS 211710Z 25009KT 34/02 A2986 RMK A01 T03360023  RH  014%=      5-min Rain = 0
KFLS 211715Z 24010KT 34/02 A2985 RMK A01 T03380024  RH  014%=      5-min Rain = 0
KFLS 211720Z 25009G14KT 34/03 A2986 RMK A01 T03390028  RH  014%=      5-min Rain = 0
KFLS 211725Z 23009KT 34/00 A2986 RMK A01 T03380002  RH  012%=      5-min Rain = 0
KFLS 211730Z 24010KT 34/03 A2985 RMK A01 T03390026  RH  014%=      5-min Rain = 0
KFLS 211735Z 24009KT 34/02 A2985 RMK A01 T03390023  RH  014%=      5-min Rain = 0
KFLS 211740Z 25008KT 34/03 A2985 RMK A01 T03400025  RH  014%=      5-min Rain = 0
KFLS 211745Z 23009KT 34/03 A2985 RMK A01 T03410031  RH  014%=      5-min Rain = 0
KFLS 211750Z 23008KT 34/03 A2985 RMK A01 T03440031  RH  014%=      5-min Rain = 0
KFLS 211755Z 24006KT 35/03 A2985 RMK A01 T03450029  RH  014%=      5-min Rain = 0
KFLS 211800Z 23007KT 35/03 A2985 RMK A01 T03460033  RH  014%=      5-min Rain = 0
KFLS 211805Z 23007KT 35/01 A2985 RMK A01 T03450009  RH  012%=      5-min Rain = 0
KFLS 211810Z 23008KT 35/03 A2985 RMK A01 T03470027  RH  014%=      5-min Rain = 0
KFLS 211815Z 24007KT 35/00 A2985 RMK A01 T03460000  RH  011%=      5-min Rain = 0
KFLS 211820Z 24007KT 35/01 A2985 RMK A01 T03460007  RH  012%=      5-min Rain = 0
KFLS 211825Z 22008KT 35/02 A2984 RMK A01 T03480015  RH  012%=      5-min Rain = 0
KFLS 211830Z 24008G13KT 35/00 A2984 RMK A01 T03480003  RH  011%=      5-min Rain = 0
KFLS 211835Z 23008KT 35/01 A2984 RMK A01 T03490009  RH  012%=      5-min Rain = 0
KFLS 211840Z 24008KT 35/01 A2984 RMK A01 T03510013  RH  012%=      5-min Rain = 0
KFLS 211845Z 21008KT 35/01 A2984 RMK A01 T03520014  RH  012%=      5-min Rain = 0
KFLS 211850Z 24006KT 35/02 A2983 RMK A01 T03530023  RH  013%=      5-min Rain = 0
KFLS 211855Z 23007G12KT 36/03 A2983 RMK A01 T03560030  RH  013%=      5-min Rain = 0
KFLS 211900Z 24008KT 36/02 A2983 RMK A01 T03550016  RH  012%=      5-min Rain = 0
KFLS 211905Z 25007KT 35/01 A2983 RMK A01 T03530006  RH  011%=      5-min Rain = 0
KFLS 211910Z 26004KT 35/M00 A2983 RMK A01 T03521001  RH  011%=      5-min Rain = 0
KFLS 211915Z 24006G13KT 36/02 A2983 RMK A01 T03560021  RH  012%=      5-min Rain = 0
KFLS 211920Z 23005KT 36/01 A2983 RMK A01 T03570005  RH  011%=      5-min Rain = 0
KFLS 211925Z 22008KT 36/01 A2982 RMK A01 T03590014  RH  012%=      5-min Rain = 0
KFLS 211930Z 22010KT 36/02 A2982 RMK A01 T03610015  RH  012%=      5-min Rain = 0
KFLS 211935Z 22009KT 36/01 A2982 RMK A01 T03620013  RH  011%=      5-min Rain = 0
KFLS 211940Z 22007G13KT 36/03 A2982 RMK A01 T03630026  RH  012%=      5-min Rain = 0
KFLS 211945Z 22011G17KT 36/02 A2982 RMK A01 T03620018  RH  012%=      5-min Rain = 0
KFLS 211950Z 23008KT 37/03 A2982 RMK A01 T03650028  RH  012%=      5-min Rain = 0
KFLS 211955Z 22008KT 37/03 A2982 RMK A01 T03650030  RH  013%=      5-min Rain = 0
KFLS 212000Z 23010G16KT 37/02 A2981 RMK A01 T03650017  RH  012%=      5-min Rain = 0
KFLS 212005Z 20012KT 37/03 A2981 RMK A01 T03650030  RH  013%=      5-min Rain = 0
KFLS 212010Z 19010KT 36/02 A2981 RMK A01 T03630023  RH  012%=      5-min Rain = 0
KFLS 212015Z 20009G15KT 37/03 A2981 RMK A01 T03660033  RH  013%=      5-min Rain = 0
KFLS 212020Z 21012KT 37/05 A2981 RMK A01 T03670045  RH  014%=      5-min Rain = 0
KFLS 212025Z 20010G16KT 37/04 A2981 RMK A01 T03670041  RH  014%=      5-min Rain = 0
KFLS 212030Z 21012G19KT 37/04 A298 RMK A01 T03670035  RH  013%=      5-min Rain = 0
KFLS 212035Z 20011KT 37/04 A298 RMK A01 T03680039  RH  013%=      5-min Rain = 0
KFLS 212040Z 22009KT 37/04 A298 RMK A01 T03690038  RH  013%=      5-min Rain = 0
KFLS 212045Z 22007KT 37/04 A298 RMK A01 T03700043  RH  013%=      5-min Rain = 0
KFLS 212050Z 23008G13KT 37/04 A298 RMK A01 T03710036  RH  013%=      5-min Rain = 0
KFLS 212055Z 20010KT 37/04 A298 RMK A01 T03700043  RH  013%=      5-min Rain = 0
KFLS 212100Z 22011G16KT 37/03 A298 RMK A01 T03710033  RH  013%=      5-min Rain = 0
KFLS 212105Z 21007KT 37/04 A298 RMK A01 T03700038  RH  013%=      5-min Rain = 0
KFLS 212110Z 22006KT 37/03 A2979 RMK A01 T03710033  RH  013%=      5-min Rain = 0
KFLS 212115Z 21010G17KT 37/06 A2979 RMK A01 T03730057  RH  015%=      5-min Rain = 0
KFLS 212120Z 21009KT 37/05 A2979 RMK A01 T03720054  RH  014%=      5-min Rain = 0
KFLS 212125Z 21012KT 37/06 A2979 RMK A01 T03720057  RH  015%=      5-min Rain = 0
KFLS 212130Z 21010KT 37/06 A2979 RMK A01 T03740058  RH  015%=      5-min Rain = 0
KFLS 212135Z 19012G17KT 37/06 A2979 RMK A01 T03740061  RH  015%=      5-min Rain = 0
KFLS 212140Z 22012G20KT 38/05 A2978 RMK A01 T03760048  RH  013%=      5-min Rain = 0
KFLS 212145Z 22012G19KT 37/05 A2978 RMK A01 T03730048  RH  014%=      5-min Rain = 0
KFLS 212150Z 22012G19KT 37/04 A2978 RMK A01 T03740042  RH  013%=      5-min Rain = 0
KFLS 212155Z 22011G16KT 37/03 A2978 RMK A01 T03740034  RH  012%=      5-min Rain = 0
KFLS 212200Z 23012G20KT 38/05 A2978 RMK A01 T03750045  RH  013%=      5-min Rain = 0
KFLS 212205Z 20014KT 37/06 A2978 RMK A01 T03730056  RH  015%=      5-min Rain = 0
KFLS 212210Z 22011G16KT 37/05 A2978 RMK A01 T03740051  RH  014%=      5-min Rain = 0
KFLS 212215Z 22014G19KT 37/04 A2977 RMK A01 T03730043  RH  013%=      5-min Rain = 0
KFLS 212220Z 21012G19KT 37/05 A2977 RMK A01 T03720046  RH  014%=      5-min Rain = 0
KFLS 212225Z 22012G17KT 37/05 A2977 RMK A01 T03720046  RH  014%=      5-min Rain = 0
KFLS 212230Z 21012KT 37/04 A2977 RMK A01 T03730041  RH  013%=      5-min Rain = 0
KFLS 212235Z 22012G20KT 37/05 A2977 RMK A01 T03730048  RH  014%=      5-min Rain = 0
KFLS 212240Z 22014G19KT 37/03 A2977 RMK A01 T03720032  RH  012%=      5-min Rain = 0
KFLS 212245Z 23017G25KT 37/03 A2977 RMK A01 T03710031  RH  012%=      5-min Rain = 0
KFLS 212250Z 22016G23KT 37/03 A2977 RMK A01 T03710028  RH  012%=      5-min Rain = 0
KFLS 212255Z 22014G20KT 37/03 A2977 RMK A01 T03700034  RH  013%=      5-min Rain = 0
KFLS 212300Z 22012KT 37/03 A2977 RMK A01 T03710032  RH  012%=      5-min Rain = 0
KFLS 212305Z 22015G22KT 37/03 A2976 RMK A01 T03700034  RH  013%=      5-min Rain = 0
KFLS 212310Z 22012KT 37/04 A2976 RMK A01 T03700042  RH  013%=      5-min Rain = 0
KFLS 212315Z 23012KT 37/04 A2976 RMK A01 T03700041  RH  013%=      5-min Rain = 0
KFLS 212320Z 22013G18KT 37/04 A2976 RMK A01 T03690035  RH  013%=      5-min Rain = 0
KFLS 212325Z 21014G23KT 37/04 A2976 RMK A01 T03680039  RH  013%=      5-min Rain = 0
KFLS 212330Z 23013G18KT 37/03 A2976 RMK A01 T03680033  RH  013%=      5-min Rain = 0
KFLS 212335Z 22011G16KT 37/03 A2976 RMK A01 T03680030  RH  012%=      5-min Rain = 0
KFLS 212340Z 22012G17KT 37/03 A2976 RMK A01 T03670028  RH  012%=      5-min Rain = 0
KFLS 212345Z 23011G16KT 37/03 A2976 RMK A01 T03670029  RH  012%=      5-min Rain = 0
KFLS 212350Z 23012KT 37/04 A2976 RMK A01 T03650039  RH  013%=      5-min Rain = 0
KFLS 212355Z 22009G15KT 36/05 A2976 RMK A01 T03640046  RH  014%=      5-min Rain = 0
KFLS 220000Z 22011G18KT 36/04 A2976 RMK A01 T03630040  RH  014%=      5-min Rain = 0
KFLS 220005Z 22011KT 36/04 A2976 RMK A01 T03620038  RH  014%=      5-min Rain = 0
KFLS 220010Z 22012KT 36/04 A2976 RMK A01 T03600038  RH  014%=      5-min Rain = 0
KFLS 220015Z 22012G17KT 36/03 A2976 RMK A01 T03600031  RH  013%=      5-min Rain = 0
KFLS 220020Z 22010KT 36/03 A2976 RMK A01 T03580034  RH  013%=      5-min Rain = 0
KFLS 220025Z 22007KT 36/05 A2976 RMK A01 T03560046  RH  015%=      5-min Rain = 0
KFLS 220030Z 22010G15KT 36/04 A2976 RMK A01 T03550039  RH  014%=      5-min Rain = 0
KFLS 220035Z 22007KT 35/05 A2976 RMK A01 T03540050  RH  015%=      5-min Rain = 0
KFLS 220040Z 22007KT 35/06 A2976 RMK A01 T03500055  RH  016%=      5-min Rain = 0
KFLS 220045Z 18008KT 34/08 A2976 RMK A01 T03400083  RH  021%=      5-min Rain = 0
KFLS 220050Z 16018G25KT 33/12 A2977 RMK A01 T03310122  RH  029%=      5-min Rain = 0
KFLS 220055Z 16020G26KT 33/13 A2977 RMK A01 T03270132  RH  031%=      5-min Rain = 0
KFLS 220100Z 17017KT 32/13 A2977 RMK A01 T03210130  RH  032%=      5-min Rain = 0
KFLS 220105Z 16017G24KT 32/13 A2977 RMK A01 T03170128  RH  032%=      5-min Rain = 0
KFLS 220110Z 17013G21KT 32/13 A2977 RMK A01 T03150127  RH  032%=      5-min Rain = 0
KFLS 220115Z 16015KT 31/13 A2976 RMK A01 T03120127  RH  033%=      5-min Rain = 0
KFLS 220120Z 16015KT 31/13 A2976 RMK A01 T03090125  RH  033%=      5-min Rain = 0
KFLS 220125Z 16012KT 31/13 A2976 RMK A01 T03060125  RH  034%=      5-min Rain = 0
KFLS 220130Z 15013KT 30/12 A2976 RMK A01 T03030121  RH  033%=      5-min Rain = 0
KFLS 220135Z 15012KT 30/12 A2976 RMK A01 T02990120  RH  034%=      5-min Rain = 0
KFLS 220140Z 15012KT 30/12 A2977 RMK A01 T02960119  RH  034%=      5-min Rain = 0
KFLS 220145Z 15013KT 30/12 A2977 RMK A01 T02950119  RH  034%=      5-min Rain = 0
KFLS 220150Z 16013KT 29/12 A2978 RMK A01 T02930122  RH  035%=      5-min Rain = 0
KFLS 220155Z 15016KT 29/12 A2978 RMK A01 T02930122  RH  035%=      5-min Rain = 0
KFLS 220200Z 15016G22KT 29/12 A2979 RMK A01 T02930124  RH  036%=      5-min Rain = 0
KFLS 220205Z 15015G20KT 29/13 A2979 RMK A01 T02900126  RH  037%=      5-min Rain = 0
KFLS 220210Z 15015G21KT 29/13 A298 RMK A01 T02890128  RH  038%=      5-min Rain = 0
KFLS 220215Z 15014KT 29/13 A298 RMK A01 T02860130  RH  039%=      5-min Rain = 0
KFLS 220220Z 15017G22KT 28/13 A298 RMK A01 T02840130  RH  039%=      5-min Rain = 0
KFLS 220225Z 16021G29KT 29/14 A2981 RMK A01 T02860141  RH  042%=      5-min Rain = 0
KFLS 220230Z 16027G34KT 28/15 A2981 RMK A01 T02750149  RH  047%=      5-min Rain = 0
KFLS 220235Z 16022G34KT 27/14 A2981 RMK A01 T02680141  RH  047%=      5-min Rain = 0
KFLS 220240Z 16018G25KT 26/14 A2981 RMK A01 T02610140  RH  048%=      5-min Rain = 0
KFLS 220245Z 15019G25KT 26/13 A2981 RMK A01 T02620130  RH  045%=      5-min Rain = 0
KFLS 220250Z 15016KT 26/13 A2981 RMK A01 T02620125  RH  043%=      5-min Rain = 0
KFLS 220255Z 15017G22KT 26/12 A2981 RMK A01 T02610122  RH  043%=      5-min Rain = 0
KFLS 220300Z 14015G21KT 26/13 A2981 RMK A01 T02590128  RH  045%=      5-min Rain = 0
KFLS 220305Z 14017G24KT 25/13 A2982 RMK A01 T02540134  RH  048%=      5-min Rain = 0
KFLS 220310Z 13018G23KT 25/13 A2982 RMK A01 T02480133  RH  050%=      5-min Rain = 0
KFLS 220315Z 14017G23KT 25/13 A2982 RMK A01 T02450134  RH  051%=      5-min Rain = 0
KFLS 220320Z 14012KT 24/14 A2982 RMK A01 T02410136  RH  053%=      5-min Rain = 0
KFLS 220325Z 14011KT 24/14 A2982 RMK A01 T02380138  RH  055%=      5-min Rain = 0
KFLS 220330Z 14011KT 24/14 A2983 RMK A01 T02380141  RH  056%=      5-min Rain = 0
KFLS 220335Z 14011KT 24/14 A2983 RMK A01 T02380142  RH  056%=      5-min Rain = 0
KFLS 220340Z 16012KT 24/14 A2985 RMK A01 T02390143  RH  056%=      5-min Rain = 0
KFLS 220345Z 16013KT 24/14 A2985 RMK A01 T02420143  RH  055%=      5-min Rain = 0
KFLS 220350Z 16013KT 24/15 A2986 RMK A01 T02430145  RH  055%=      5-min Rain = 0
KFLS 220355Z 15013KT 24/15 A2986 RMK A01 T02420145  RH  056%=      5-min Rain = 0
KFLS 220400Z 15012KT 24/14 A2986 RMK A01 T02420144  RH  056%=      5-min Rain = 0
KFLS 220405Z 15011KT 24/15 A2986 RMK A01 T02410145  RH  056%=      5-min Rain = 0
KFLS 220410Z 15011G17KT 24/15 A2986 RMK A01 T02400145  RH  056%=      5-min Rain = 0
KFLS 220415Z 15011KT 24/15 A2986 RMK A01 T02400146  RH  057%=      5-min Rain = 0
KFLS 220420Z 16011KT 24/15 A2986 RMK A01 T02400148  RH  058%=      5-min Rain = 0
KFLS 220425Z 16011KT 24/15 A2987 RMK A01 T02400150  RH  058%=      5-min Rain = 0
KFLS 220430Z 16010KT 24/15 A2987 RMK A01 T02390150  RH  059%=      5-min Rain = 0
KFLS 220435Z 16010KT 24/15 A2986 RMK A01 T02380152  RH  060%=      5-min Rain = 0
KFLS 220440Z 16010KT 24/16 A2986 RMK A01 T02380155  RH  061%=      5-min Rain = 0
KFLS 220445Z 16009KT 24/16 A2986 RMK A01 T02370156  RH  062%=      5-min Rain = 0
KFLS 220450Z 16008KT 24/16 A2986 RMK A01 T02360157  RH  063%=      5-min Rain = 0
KFLS 220455Z 16008KT 23/16 A2986 RMK A01 T02340158  RH  064%=      5-min Rain = 0

Page generated in 0.0101 seconds.